Aérodrome :
LOGIN :

S'inscrire | Disclaimer

   EN    FR    IT 

 










Légende :    VFR   VFR Marginal   IFR   IFR Intensif   IFR Très Intensif
Visi : 
Plafond : 
>= 8 km
>= 3000ft
5 à 8 km
1000 à 3000 ft
1500m à 5 km
500 à 1000 ft
800 à 1500m
200 à 500 ft
< 800m
< 200 ft
Symboles :   Orages  Brouillard  Fortes neiges  Fortes précipitations  Vent > 20 kt
SIGMETs :   Divers  Orages  Givrage  Turbulence  Onde Orograph.  Cendres Volcan.







- Altitude de l'aérodrome : 400 ft
- Code IATA : BNX


LQBK - Banja Luka

DERNIER METAR :
  • 292100Z 18006KT CAVOK 05/03 Q1019 NOSIG

METARs EXPIRÉS :
  • 292030Z 17005KT CAVOK 05/03 Q1019 NOSIG
  • 292000Z 17004KT CAVOK 06/03 Q1019 NOSIG
  • 291930Z 18006KT CAVOK 06/03 Q1019 NOSIG
  • 291900Z 18005KT CAVOK 06/03 Q1019 NOSIG
  • 291830Z 17003KT CAVOK 07/04 Q1018 NOSIG

TAF TAF LQBK
Valide du 29 à 18h jusqu'au 30 à 18h UTC


291700Z 2918/3018 18005KT CAVOK TX17/3014Z TN02/3005Z
PROB30 3000/3006 1000 BCFG BKN002
TEMPO 3012/3016 06010KT
Pas de NOTAMs connus pour ce terrain.



MET'MAP, la Météo Aéronautique d'un coup d'oeil ! - Copyright ORBIFLY Décembre 2007 - Disclaimer

ORBIFLY MET'MAP TEAM :

Programmation & Développement : Alexandra Zaïnal
Conception & Développement : Baudouin d'Aumeries
Co-Programmation & Développement : Marc-Olivier Méhu
Soutien technique & logistique : Manuel Goepfert

Contact : metmap@orbifly.com




SOURCES & CREDITS :

   NOAA